• Join FlightAware (Why Join?)
  • Login
  • US Flag 
07:37PM EDT


 

Airport Tracker/Info


-or-


 

Live Flight TrackerFlight Track Log ✈ JBU33 ✈ 21-Jun-2013 ✈ KBTV - KJFK

Flight Track Log - Related Links

Times and Time Zones

All times are in EDT time to prevent confusion due to time zone crossing. See the JBU33 flight status page for this flight to view local times or setup timezone preferences in your user account.

Time Position Orientation Groundspeed Altitude Reporting Facility
EDT Latitude Longitude Course Direction KTS MPH feet Rate Location/Type
01:34PM 44.2528 -73.1819 196° South 296 341 9,900  Level Boston Center
01:35PM 44.0552 -73.3038 194° South  Level FlightAware Approximate
01:35PM 44.1669 -73.2186 197° South 320 368 10,000  Level Boston Center
01:36PM 43.9720 -73.3316 194° South  Level FlightAware Approximate
01:36PM 44.0750 -73.2578 197° South 337 388 10,600  Level Boston Center
01:37PM 43.8891 -73.3611 196° South  Level FlightAware Approximate
01:37PM 43.9811 -73.2969 197° South 345 397 13,800  Level Boston Center
01:38PM 43.8069 -73.3941 196° South  Level FlightAware Approximate
01:38PM 43.8828 -73.3389 197° South 358 412 16,500  Level Boston Center
01:39PM 43.7247 -73.4270 196° South  Level FlightAware Approximate
01:39PM 43.7803 -73.3833 197° South 382 440 19,000  Level Boston Center
01:40PM 43.6633 -73.4303 196° South 397 457 21,200 2,100 Climbing Boston Center
01:41PM 43.5522 -73.4742 196° South 403 464 23,200 1,980 Climbing Boston Center
01:42PM 43.4414 -73.5211 197° South 413 475 25,200 1,680 Climbing Boston Center
01:43PM 43.3264 -73.5644 195° South 423 487 26,600 1,320 Climbing Boston Center
01:44PM 43.2072 -73.6164 198° South 435 501 27,900 660 Climbing Boston Center
01:45PM 43.0961 -73.6628 197° South 446 513 28,000  Climbing Boston Center
01:46PM 42.9769 -73.7114 197° South 456 525 28,000  Level Boston Center
01:47PM 42.8511 -73.7628 197° South 462 532 28,000  Level Boston Center
01:48PM 42.7258 -73.8025 193° South 463 533 28,000  Level Boston Center
01:49PM 42.5878 -73.8303 188° South 463 533 28,000  Level Boston Center
01:50PM 42.4714 -73.8136 174° South 468 539 28,000  Level Boston Center
01:51PM 42.3378 -73.8164 181° South 474 545 28,000  Level Boston Center
01:52PM 42.2086 -73.8192 181° South 474 545 28,000  Level Boston Center
01:53PM 42.0794 -73.8192 180° South 474 545 28,000 -120 Level Boston Center
01:54PM 41.9506 -73.7800 167° South 474 545 27,800 -540 Descending Boston Center
01:55PM 41.8492 -73.7361 162° South 480 552 27,000 -1,020 Descending Boston Center
01:56PM 41.6975 -73.6883 167° South 475 547 25,800 -1,500 Descending Boston Center
01:58PM 41.5269 -73.8719 219° Southwest 376 433 22,600 -1,680 Descending New York Center
01:59PM 41.4514 -73.9736 225° Southwest 384 442 21,100 -1,380 Descending New York Center
02:00PM 41.3800 -74.0725 226° Southwest 384 442 20,000 -600 Descending New York Center
02:01PM 41.2903 -74.1481 212° Southwest 384 442 20,000  Level New York Center
02:02PM 41.2072 -74.2128 210° Southwest 389 448 20,000  Level New York Center
02:03PM 41.1175 -74.2936 214° Southwest 395 455 20,000  Level New York Center
02:04PM 41.0275 -74.3714 213° Southwest 395 455 20,000 -480 Level New York Center
02:05PM 40.9244 -74.3358 165° South 353 406 19,100 -540 Descending New York Center
02:06PM 40.9058 -74.1892 99° East 302 348 19,000 -120 Descending New York Center
02:06PM 40.8833 -74.1167 112° Southeast 367 422 19,000 -480 Level New York TRACON
02:07PM 40.8500 -74.0000 111° Southeast 363 418 18,300 -1,020 Descending New York TRACON
02:08PM 40.8000 -73.9000 123° Southeast 359 413 17,100 -1,500 Descending New York TRACON
02:09PM 40.7500 -73.7667 116° Southeast 359 413 15,300 -1,620 Descending New York TRACON
02:10PM 40.7167 -73.6500 111° Southeast 359 413 13,700 -1,140 Descending New York TRACON
02:11PM 40.6667 -73.5500 123° Southeast 326 375 13,100 -900 Descending New York TRACON
02:12PM 40.6000 -73.5167 159° South 319 367 12,000 -1,440 Descending New York TRACON
02:13PM 40.5167 -73.5333 189° South 299 344 10,400 -1,800 Descending New York TRACON
02:14PM 40.4500 -73.5833 210° Southwest 287 330 8,400 -1,680 Descending New York TRACON
02:15PM 40.3833 -73.6333 210° Southwest 287 330 7,000 -900 Descending New York TRACON
02:16PM 40.3333 -73.7167 232° Southwest 280 322 6,700 -960 Descending New York TRACON
02:17PM 40.3333 -73.8167 270° West 272 313 5,200 -1,380 Descending New York TRACON
02:18PM 40.3500 -73.9000 285° West 267 307 4,000 -720 Descending New York TRACON
02:19PM 40.3667 -73.9528 293° West 268 308 4,100  Climbing New York Center
02:20PM 40.4500 -73.9833 344° North 226 260 4,100 -300 Level New York TRACON
02:21PM 40.5167 -73.9667 11° North 228 262 3,400 -840 Descending New York TRACON
02:22PM 40.5667 -73.9333 27° Northeast 204 235 2,500 -960 Descending New York TRACON
02:23PM 40.6167 -73.9000 27° Northeast 194 223 1,500 -780 Descending New York TRACON
02:24PM 40.6500 -73.8667 37° Northeast 146 168 1,000 -420 Descending New York TRACON
02:25PM 40.6667 -73.8167 66° East 139 160 700 -300 Descending New York TRACON
02:27PM 40.6398 -73.7789 98° East  Level Estimated
02:34PM 40.6398 -73.7789 337° Northwest  Level Estimated
02:35PM 40.6398 -73.7789 270° West  Level Estimated
02:36PM 40.6398 -73.7789 270° West  Level Estimated